Wetterdaten: aktuell Samstag, 06.06.2020 23:45
Datum Zeit Auentemp. Feuchte A. Luftdruck Niederschl. Wind Richtung Richtung Sonnenschein UV Windben
06.06.2020 23:45 12,8 C 93 % 1006,6 hPa 0,0 l/m 3,6 km/h O-SO 118 0 min 0,0 UV-I 6,4 km/h
06.06.2020 22:45 12,9 C 91 % 1007,1 hPa 0,0 l/m 2,0 km/h O-SO 119 0 min 0,0 UV-I 4,8 km/h
06.06.2020 21:45 13,2 C 88 % 1006,7 hPa 0,0 l/m 0,0 km/h O-SO 122 0 min 0,0 UV-I 1,6 km/h
06.06.2020 20:45 13,6 C 84 % 1006,1 hPa 0,0 l/m 4,3 km/h O-SO 114 10 min 0,0 UV-I 8,0 km/h
06.06.2020 19:45 13,6 C 83 % 1006,1 hPa 0,0 l/m 0,0 km/h O-NO 78 0 min 0,0 UV-I 0,0 km/h
06.06.2020 18:45 13,1 C 84 % 1006,5 hPa 0,0 l/m 0,2 km/h N-NO 15 0 min 0,0 UV-I 1,6 km/h
06.06.2020 17:45 13,1 C 83 % 1006,0 hPa 0,2 l/m 2,9 km/h N-NW 331 0 min 0,0 UV-I 6,4 km/h
06.06.2020 16:45 13,2 C 87 % 1006,0 hPa 0,4 l/m 5,3 km/h NW 306 5 min 1,7 UV-I 11,3 km/h
06.06.2020 15:45 14,9 C 77 % 1006,0 hPa 0,0 l/m 5,7 km/h N-NW 333 35 min 2,7 UV-I 12,9 km/h
06.06.2020 14:45 13,6 C 80 % 1006,0 hPa 0,0 l/m 5,5 km/h N-NW 344 15 min 1,6 UV-I 11,3 km/h
06.06.2020 13:45 14,9 C 79 % 1005,5 hPa 0,0 l/m 8,8 km/h W 273 55 min 7,7 UV-I 17,7 km/h
06.06.2020 12:45 12,8 C 88 % 1005,5 hPa 0,8 l/m 10,1 km/h NW 314 0 min 2,2 UV-I 17,7 km/h
06.06.2020 11:45 12,8 C 86 % 1004,9 hPa 0,0 l/m 7,8 km/h W-NW 295 20 min 0,0 UV-I 14,5 km/h
06.06.2020 10:45 13,9 C 86 % 1003,9 hPa 0,0 l/m 8,2 km/h NW 309 10 min 2,3 UV-I 17,7 km/h
06.06.2020 09:45 12,4 C 91 % 1003,7 hPa 0,2 l/m 6,3 km/h NW 322 0 min 1,5 UV-I 11,3 km/h
06.06.2020 08:45 12,1 C 91 % 1003,4 hPa 0,0 l/m 1,2 km/h N 350 0 min 0,6 UV-I 4,8 km/h
06.06.2020 07:45 11,5 C 92 % 1002,9 hPa 0,0 l/m 3,2 km/h NW 315 0 min 0,0 UV-I 8,0 km/h
06.06.2020 06:45 11,4 C 93 % 1002,7 hPa 0,0 l/m 1,6 km/h NW 315 0 min 0,0 UV-I 4,8 km/h
06.06.2020 05:45 11,1 C 93 % 1002,2 hPa 0,2 l/m 4,8 km/h O-SO 112 0 min 0,0 UV-I 11,3 km/h
06.06.2020 04:45 11,3 C 92 % 1002,3 hPa 0,2 l/m 0,0 km/h N 0 0 min 0,0 UV-I 0,0 km/h
06.06.2020 03:45 11,3 C 92 % 1002,8 hPa 0,0 l/m 0,0 km/h N 0 0 min 0,0 UV-I 0,0 km/h
06.06.2020 02:45 11,4 C 91 % 1003,2 hPa 0,0 l/m 0,0 km/h N 0 0 min 0,0 UV-I 0,0 km/h
06.06.2020 01:45 11,5 C 90 % 1003,5 hPa 1,0 l/m 0,0 km/h N 0 0 min 0,0 UV-I 0,0 km/h
06.06.2020 00:45 12,4 C 81 % 1002,8 hPa 0,0 l/m 4,8 km/h W-SW 247 0 min 0,0 UV-I 14,5 km/h
06.06.2020 00:00 12,6 C 79 % 1002,6 hPa 0,0 l/m 6,4 km/h S 180 0 min 0,0 UV-I 11,3 km/h
_ Min-Zeit 06:00 14:20 06:10 - 22:05 - - - - 21:55
Minimum _ 11,1 C 75 % 1002,2 hPa - 0,0 km/h - - - - 0,0 km/h
_ Max-Zeit 13:50 23:45 22:55 12:10 13:15 - - 20:10 13:45 11:35
Maximum _ 15,1 C 93 % 1007,1 hPa 0,6 l/m 11,7 km/h
NW
- - 5 min 7,7 UV-I 22,5 km/h
NW
Durchschnitt _ 12,7 C 87 % 1004,6 hPa #3,0 l/m 3,9 km/h NW - #2:30 h 2,4 UV-I 7,7 km/h